Time;durP1;ratioP1;P1;durP2;ratioP2;P2;SDS_P1;SDS_P2;PMS_P1;PMS_P2;Temp;Humidity;BMP_temperature;BMP_pressure;BME280_temperature;BME280_humidity;BME280_pressure;Samples;Min_cycle;Max_cycle;Signal;HPM_P1;HPM_P2
2023/04/15 00:00:59;;;;;;;10.70;6.90;;;7.70;1.00;;;;;;5009947;28;20199;-67
2023/04/15 00:03:27;;;;;;;11.30;7.03;;;7.80;1.00;;;;;;5050250;28;20218;-67
2023/04/15 00:05:55;;;;;;;8.00;6.80;;;7.70;1.00;;;;;;5033301;28;20200;-67
2023/04/15 00:08:22;;;;;;;10.13;6.80;;;7.70;1.00;;;;;;5044648;28;20249;-69
2023/04/15 00:10:49;;;;;;;8.80;7.10;;;7.70;1.00;;;;;;5050993;28;20231;-67
2023/04/15 00:13:16;;;;;;;15.23;9.03;;;7.70;1.00;;;;;;5050371;28;20280;-67
2023/04/15 00:15:43;;;;;;;33.17;16.57;;;7.60;1.00;;;;;;5017423;28;20188;-67
2023/04/15 00:18:10;;;;;;;27.70;13.50;;;7.60;1.00;;;;;;5048154;28;20230;-66
2023/04/15 00:20:37;;;;;;;36.67;17.67;;;7.50;1.00;;;;;;5032830;28;20192;-67
2023/04/15 00:23:04;;;;;;;48.53;22.33;;;7.50;1.00;;;;;;5045936;28;20626;-67
2023/04/15 00:25:31;;;;;;;36.43;17.80;;;7.50;1.00;;;;;;5036263;28;20555;-66
2023/04/15 00:27:58;;;;;;;40.67;19.67;;;7.40;1.00;;;;;;5041574;28;20732;-66
2023/04/15 00:30:26;;;;;;;26.83;14.83;;;7.40;1.00;;;;;;5029216;28;20198;-67
2023/04/15 00:32:53;;;;;;;17.07;10.80;;;7.30;1.00;;;;;;5036011;28;20587;-66
2023/04/15 00:35:22;;;;;;;11.80;8.97;;;7.30;1.00;;;;;;5022667;28;20204;-66
2023/04/15 00:37:50;;;;;;;10.93;7.77;;;7.30;1.00;;;;;;5032999;28;20257;-66
2023/04/15 00:40:19;;;;;;;9.27;7.50;;;7.30;1.00;;;;;;5022178;28;20190;-65
2023/04/15 00:42:46;;;;;;;10.50;7.50;;;7.20;1.00;;;;;;5045728;28;20267;-67
2023/04/15 00:45:14;;;;;;;11.57;7.07;;;7.20;1.00;;;;;;5050129;28;20233;-67
2023/04/15 00:47:42;;;;;;;10.27;7.33;;;7.10;1.00;;;;;;5036687;28;20638;-66
2023/04/15 00:50:11;;;;;;;9.30;6.83;;;7.10;1.00;;;;;;5052168;28;20298;-66
2023/04/15 00:52:39;;;;;;;9.23;6.87;;;7.10;1.00;;;;;;5014261;28;20835;-70
2023/04/15 00:55:07;;;;;;;8.00;7.17;;;7.10;1.00;;;;;;5030285;28;20207;-67
2023/04/15 00:57:35;;;;;;;8.97;6.60;;;7.10;1.00;;;;;;5016703;28;20286;-67
2023/04/15 01:00:04;;;;;;;7.23;6.40;;;7.00;1.00;;;;;;5032087;28;20231;-67
2023/04/15 01:02:32;;;;;;;10.97;7.40;;;6.90;1.00;;;;;;5046030;28;20219;-67
2023/04/15 01:05:02;;;;;;;11.47;7.80;;;6.90;1.00;;;;;;5047426;28;20236;-67
2023/04/15 01:07:30;;;;;;;9.27;7.17;;;6.90;1.00;;;;;;5020028;28;20207;-67
2023/04/15 01:09:58;;;;;;;10.00;7.33;;;6.90;1.00;;;;;;5028697;28;20219;-67
2023/04/15 01:12:26;;;;;;;9.00;6.77;;;6.90;1.00;;;;;;5048189;28;20613;-67
2023/04/15 01:14:54;;;;;;;8.03;6.93;;;6.90;1.00;;;;;;5046992;28;20230;-67
2023/04/15 01:17:23;;;;;;;9.00;7.53;;;6.90;1.00;;;;;;5042671;28;20660;-67
2023/04/15 01:19:51;;;;;;;8.07;7.13;;;6.80;1.00;;;;;;5041001;28;20662;-68
2023/04/15 01:22:18;;;;;;;8.33;7.00;;;6.80;1.00;;;;;;5045709;28;20195;-67
2023/04/15 01:24:58;;;;;;;8.70;6.93;;;6.80;1.00;;;;;;5033136;28;20334;-67
2023/04/15 01:27:25;;;;;;;8.30;6.97;;;6.80;1.00;;;;;;5045259;28;20241;-67
2023/04/15 01:29:52;;;;;;;10.03;8.37;;;6.70;1.00;;;;;;5046271;28;20187;-67
2023/04/15 01:32:19;;;;;;;11.80;9.20;;;6.70;1.00;;;;;;5027489;28;20209;-67
2023/04/15 01:34:46;;;;;;;10.23;8.03;;;6.70;1.00;;;;;;5040527;28;20516;-67
2023/04/15 01:37:14;;;;;;;10.13;7.43;;;6.60;1.00;;;;;;5065918;28;20220;-67
2023/04/15 01:39:43;;;;;;;8.43;7.23;;;6.60;1.00;;;;;;5040624;28;20525;-72
2023/04/15 01:42:10;;;;;;;10.30;7.40;;;6.50;1.00;;;;;;5030971;28;20241;-67
2023/04/15 01:44:37;;;;;;;9.77;7.83;;;6.50;1.00;;;;;;5031923;28;20539;-68
2023/04/15 01:47:04;;;;;;;10.27;7.77;;;6.50;1.00;;;;;;5016470;28;20198;-67
2023/04/15 01:49:31;;;;;;;13.03;8.43;;;6.50;1.00;;;;;;5042456;28;20251;-67
2023/04/15 01:51:59;;;;;;;15.30;9.23;;;6.50;1.00;;;;;;5026402;28;20192;-68
2023/04/15 01:54:26;;;;;;;10.20;8.50;;;6.40;1.00;;;;;;5002359;28;20658;-68
2023/04/15 01:56:53;;;;;;;12.30;7.97;;;6.30;1.00;;;;;;5029544;28;20693;-68
2023/04/15 01:59:20;;;;;;;10.23;8.37;;;6.30;1.00;;;;;;5022937;28;20540;-67
2023/04/15 02:01:47;;;;;;;11.43;8.63;;;6.30;1.00;;;;;;5027707;28;20198;-68
2023/04/15 02:04:17;;;;;;;10.03;7.60;;;6.20;1.00;;;;;;5027463;28;20620;-67
2023/04/15 02:06:45;;;;;;;9.00;7.83;;;6.20;1.00;;;;;;5019215;28;20274;-67
2023/04/15 02:09:13;;;;;;;10.60;9.50;;;6.20;1.00;;;;;;5042760;28;20199;-67
2023/04/15 02:11:40;;;;;;;10.23;8.20;;;6.10;1.00;;;;;;5020638;28;20246;-67
2023/04/15 02:14:09;;;;;;;11.93;10.37;;;6.10;1.00;;;;;;5019200;28;20204;-68
2023/04/15 02:16:36;;;;;;;16.67;13.53;;;6.10;1.00;;;;;;5026225;28;20184;-68
2023/04/15 02:19:03;;;;;;;12.90;9.87;;;6.00;1.00;;;;;;5008346;28;20196;-67
2023/04/15 02:21:30;;;;;;;36.37;22.90;;;6.00;1.00;;;;;;5032458;28;20500;-67
2023/04/15 02:23:57;;;;;;;21.93;16.13;;;6.00;1.00;;;;;;5042212;28;20196;-67
2023/04/15 02:26:24;;;;;;;15.87;11.63;;;6.00;1.00;;;;;;5042667;28;20196;-67
2023/04/15 02:28:54;;;;;;;10.23;8.60;;;5.90;1.00;;;;;;5023960;28;20195;-67
2023/04/15 02:31:21;;;;;;;13.27;8.67;;;5.90;1.00;;;;;;5031982;28;20195;-66
2023/04/15 02:33:48;;;;;;;11.67;9.33;;;5.90;1.00;;;;;;5023437;28;20204;-67
2023/04/15 02:36:15;;;;;;;16.30;10.37;;;5.90;1.00;;;;;;5024383;28;20188;-67
2023/04/15 02:38:42;;;;;;;11.73;9.30;;;5.90;1.00;;;;;;5030265;28;20249;-67
2023/04/15 02:41:12;;;;;;;14.87;9.50;;;5.90;1.00;;;;;;5029746;28;20198;-67
2023/04/15 02:43:39;;;;;;;17.83;13.00;;;5.90;1.00;;;;;;5024123;28;20199;-66
2023/04/15 02:46:11;;;;;;;16.33;11.77;;;5.90;1.00;;;;;;5007522;28;20199;-68
2023/04/15 02:48:38;;;;;;;16.17;12.40;;;5.90;1.00;;;;;;5017034;28;20200;-67
2023/04/15 02:51:18;;;;;;;22.50;14.17;;;5.80;1.00;;;;;;5039618;28;20668;-67
2023/04/15 02:53:47;;;;;;;16.37;11.53;;;5.80;1.00;;;;;;5037147;28;20212;-68
2023/04/15 02:56:15;;;;;;;14.87;12.07;;;5.90;1.00;;;;;;5024607;28;20727;-67
2023/04/15 02:58:44;;;;;;;17.07;12.97;;;5.90;1.00;;;;;;5022614;28;20200;-67
2023/04/15 03:01:11;;;;;;;21.77;14.07;;;5.90;1.00;;;;;;5041508;28;20948;-67
2023/04/15 03:03:39;;;;;;;13.73;10.80;;;5.90;1.00;;;;;;5011412;28;20318;-67
2023/04/15 03:06:07;;;;;;;21.03;15.17;;;5.90;1.00;;;;;;5021114;28;20200;-68
2023/04/15 03:08:35;;;;;;;27.53;17.10;;;5.90;1.00;;;;;;5021581;28;20666;-67
2023/04/15 03:11:03;;;;;;;21.47;13.93;;;5.80;1.00;;;;;;5026679;28;23461;-67
2023/04/15 03:13:31;;;;;;;23.63;16.57;;;5.80;1.00;;;;;;5021390;28;20216;-67
2023/04/15 03:16:04;;;;;;;26.53;16.83;;;5.80;1.00;;;;;;5015524;28;20782;-67
2023/04/15 03:18:31;;;;;;;17.73;12.63;;;5.80;1.00;;;;;;5040797;28;20192;-67
2023/04/15 03:21:01;;;;;;;15.40;12.30;;;5.70;1.00;;;;;;5020732;28;20192;-67
2023/04/15 03:23:31;;;;;;;15.03;11.80;;;5.70;1.00;;;;;;5025489;28;20199;-67
2023/04/15 03:26:01;;;;;;;22.90;15.13;;;5.60;1.00;;;;;;5022210;28;20657;-67
2023/04/15 03:28:31;;;;;;;20.23;13.50;;;5.60;1.00;;;;;;5028013;28;20273;-67
2023/04/15 03:30:59;;;;;;;21.37;14.13;;;5.50;1.00;;;;;;5024372;28;20192;-67
2023/04/15 03:33:26;;;;;;;30.90;16.73;;;5.50;1.00;;;;;;5023519;28;20211;-67
2023/04/15 03:35:53;;;;;;;21.37;14.53;;;5.50;1.00;;;;;;5046913;28;20203;-67
2023/04/15 03:38:20;;;;;;;68.13;29.13;;;5.50;1.00;;;;;;5050603;28;21614;-67
2023/04/15 03:40:47;;;;;;;37.03;19.47;;;5.40;1.00;;;;;;5028457;28;20691;-67
2023/04/15 03:43:14;;;;;;;17.43;12.17;;;5.40;1.00;;;;;;5027195;28;20222;-67
2023/04/15 03:45:41;;;;;;;14.40;11.47;;;5.40;1.00;;;;;;5015444;28;20667;-67
2023/04/15 03:48:08;;;;;;;14.07;11.10;;;5.40;1.00;;;;;;5048609;28;20231;-67
2023/04/15 03:50:44;;;;;;;14.17;10.63;;;5.40;1.00;;;;;;5044662;28;20318;-67
2023/04/15 03:53:11;;;;;;;13.30;11.90;;;5.40;1.00;;;;;;5032022;28;20243;-67
2023/04/15 03:55:38;;;;;;;14.13;10.83;;;5.50;1.00;;;;;;5015541;28;20203;-67
2023/04/15 03:58:05;;;;;;;13.63;10.87;;;5.50;1.00;;;;;;5043930;28;20241;-67
2023/04/15 04:00:32;;;;;;;13.50;11.37;;;5.60;1.00;;;;;;5030740;28;20199;-66
2023/04/15 04:02:59;;;;;;;14.67;11.57;;;5.60;1.00;;;;;;5032457;28;20219;-66
2023/04/15 04:05:26;;;;;;;17.43;11.60;;;5.70;1.00;;;;;;5045355;28;20660;-66
2023/04/15 04:07:53;;;;;;;13.53;11.67;;;5.80;1.00;;;;;;5045273;28;20805;-67
2023/04/15 04:10:20;;;;;;;15.37;11.87;;;5.80;1.00;;;;;;5020587;28;20351;-66
2023/04/15 04:12:47;;;;;;;16.17;11.20;;;5.80;1.00;;;;;;5025387;28;20274;-67
2023/04/15 04:15:14;;;;;;;12.33;10.57;;;5.90;1.00;;;;;;5023310;28;20237;-67
2023/04/15 04:17:41;;;;;;;19.83;12.07;;;5.90;1.00;;;;;;5009820;28;20274;-67
2023/04/15 04:20:08;;;;;;;16.87;11.80;;;5.90;1.00;;;;;;5048404;28;20302;-67
2023/04/15 04:22:39;;;;;;;14.53;11.50;;;5.90;1.00;;;;;;5033219;28;20230;-67
2023/04/15 04:25:08;;;;;;;15.70;10.50;;;5.90;1.00;;;;;;5038966;28;20194;-66
2023/04/15 04:27:36;;;;;;;16.67;11.70;;;5.90;1.00;;;;;;5021611;28;20285;-66
2023/04/15 04:30:04;;;;;;;13.27;10.40;;;5.90;1.00;;;;;;5024462;28;20282;-66
2023/04/15 04:32:31;;;;;;;12.83;10.57;;;5.80;1.00;;;;;;5018668;28;20632;-67
2023/04/15 04:34:58;;;;;;;12.90;10.13;;;5.70;1.00;;;;;;5043591;28;20207;-69
2023/04/15 04:37:26;;;;;;;14.50;10.83;;;5.50;1.00;;;;;;5021585;28;20235;-67
2023/04/15 04:39:53;;;;;;;13.60;10.97;;;5.50;1.00;;;;;;5049862;28;20222;-67
2023/04/15 04:42:19;;;;;;;16.13;11.43;;;5.60;1.00;;;;;;5024713;28;20199;-67
2023/04/15 04:44:47;;;;;;;13.50;11.33;;;5.70;1.00;;;;;;5036826;28;20246;-67
2023/04/15 04:47:13;;;;;;;14.10;11.47;;;5.70;1.00;;;;;;5046884;28;20199;-67
2023/04/15 04:49:41;;;;;;;14.83;10.60;;;5.80;1.00;;;;;;5033505;28;20195;-67
2023/04/15 04:52:08;;;;;;;16.07;12.37;;;5.80;1.00;;;;;;5026769;28;20560;-68
2023/04/15 04:54:35;;;;;;;15.37;11.77;;;5.90;1.00;;;;;;5031146;28;20223;-68
2023/04/15 04:57:02;;;;;;;14.40;10.77;;;5.90;1.00;;;;;;5060802;28;20542;-71
2023/04/15 04:59:28;;;;;;;15.00;11.30;;;6.00;1.00;;;;;;5030611;28;20199;-67
2023/04/15 05:01:55;;;;;;;13.70;10.77;;;6.00;1.00;;;;;;5049414;28;20270;-67
2023/04/15 05:04:23;;;;;;;14.27;11.20;;;6.10;1.00;;;;;;5046277;28;20216;-67
2023/04/15 05:06:50;;;;;;;12.27;10.60;;;6.20;1.00;;;;;;5026370;28;20206;-67
2023/04/15 05:09:17;;;;;;;16.93;12.50;;;6.30;1.00;;;;;;5057857;28;20245;-67
2023/04/15 05:11:44;;;;;;;13.30;11.10;;;6.30;1.00;;;;;;5037044;28;20219;-69
2023/04/15 05:14:12;;;;;;;12.20;10.30;;;6.40;1.00;;;;;;5049819;28;20200;-67
2023/04/15 05:16:39;;;;;;;14.63;9.90;;;6.60;1.00;;;;;;5025980;28;20602;-67
2023/04/15 05:19:06;;;;;;;12.70;10.10;;;6.60;1.00;;;;;;5046091;28;20189;-68
2023/04/15 05:21:33;;;;;;;22.20;10.80;;;6.70;1.00;;;;;;5042870;28;20203;-66
2023/04/15 05:24:00;;;;;;;17.30;11.37;;;6.70;1.00;;;;;;5027571;28;20192;-67
2023/04/15 05:26:27;;;;;;;20.47;12.10;;;6.70;1.00;;;;;;5024230;28;20282;-67
2023/04/15 05:28:54;;;;;;;15.03;11.83;;;6.70;1.00;;;;;;5045527;28;20213;-67
2023/04/15 05:31:21;;;;;;;13.43;9.80;;;6.80;1.00;;;;;;5044811;28;20663;-67
2023/04/15 05:33:48;;;;;;;12.63;10.07;;;6.80;1.00;;;;;;5046807;28;20210;-67
2023/04/15 05:36:15;;;;;;;18.30;11.33;;;6.90;1.00;;;;;;5045516;28;20202;-67
2023/04/15 05:38:42;;;;;;;16.40;10.63;;;6.90;1.00;;;;;;5054613;28;20187;-67
2023/04/15 05:41:09;;;;;;;16.93;11.10;;;6.90;1.00;;;;;;5031164;28;20218;-67
2023/04/15 05:43:36;;;;;;;16.80;11.73;;;6.90;1.00;;;;;;5050245;28;20242;-66
2023/04/15 05:46:03;;;;;;;14.50;11.90;;;7.00;1.00;;;;;;5046586;28;20253;-69
2023/04/15 05:48:30;;;;;;;12.53;10.90;;;7.10;1.00;;;;;;5031024;28;20277;-68
2023/04/15 05:50:57;;;;;;;13.07;11.00;;;7.30;1.00;;;;;;5043711;28;20279;-68
2023/04/15 05:53:24;;;;;;;15.37;11.30;;;7.30;1.00;;;;;;5046953;28;20202;-68
2023/04/15 05:55:51;;;;;;;14.87;11.27;;;7.40;1.00;;;;;;5059227;28;20206;-68
2023/04/15 05:58:18;;;;;;;15.43;12.27;;;7.50;1.00;;;;;;5037182;28;20737;-68
2023/04/15 06:00:45;;;;;;;20.13;14.33;;;7.60;1.00;;;;;;5032241;28;20196;-69
2023/04/15 06:03:12;;;;;;;19.13;15.17;;;7.60;1.00;;;;;;5050918;28;20218;-69
2023/04/15 06:05:39;;;;;;;18.17;14.53;;;7.70;1.00;;;;;;5049732;28;20203;-69
2023/04/15 06:08:07;;;;;;;21.30;19.20;;;7.80;1.00;;;;;;5048660;28;20200;-69
2023/04/15 06:10:35;;;;;;;18.67;12.97;;;7.90;1.00;;;;;;5027250;28;20231;-69
2023/04/15 06:13:03;;;;;;;13.30;11.93;;;7.90;1.00;;;;;;5048656;28;20556;-69
2023/04/15 06:15:30;;;;;;;17.70;12.80;;;8.00;1.00;;;;;;5050551;28;20211;-69
2023/04/15 06:17:57;;;;;;;18.20;13.57;;;8.10;1.00;;;;;;5048867;28;20194;-69
2023/04/15 06:20:25;;;;;;;15.73;13.37;;;8.20;1.00;;;;;;5022462;28;20816;-68
2023/04/15 06:22:52;;;;;;;14.70;12.97;;;8.30;1.00;;;;;;5026741;28;20188;-69
2023/04/15 06:25:19;;;;;;;15.13;11.90;;;8.30;1.00;;;;;;5029843;28;20294;-68
2023/04/15 06:27:47;;;;;;;13.80;11.20;;;8.40;1.00;;;;;;5046978;28;20677;-69
2023/04/15 06:30:14;;;;;;;14.30;12.07;;;8.50;1.00;;;;;;5029096;28;20199;-71
2023/04/15 06:32:41;;;;;;;14.13;12.17;;;8.60;1.00;;;;;;5052132;28;20665;-68
2023/04/15 06:35:08;;;;;;;11.93;10.73;;;8.70;1.00;;;;;;5027768;28;20203;-68
2023/04/15 06:37:35;;;;;;;14.37;11.50;;;8.80;1.00;;;;;;5043708;28;20184;-68
2023/04/15 06:40:03;;;;;;;14.47;11.63;;;8.90;1.00;;;;;;5025650;28;20657;-69
2023/04/15 06:42:31;;;;;;;12.83;10.73;;;9.00;1.00;;;;;;5021872;28;20191;-68
2023/04/15 06:44:58;;;;;;;14.43;10.67;;;9.10;1.00;;;;;;5045520;28;20199;-69
2023/04/15 06:47:25;;;;;;;11.60;10.40;;;9.30;1.00;;;;;;5043972;28;20522;-68
2023/04/15 06:49:52;;;;;;;12.20;10.37;;;9.40;1.00;;;;;;5030697;28;20286;-70
2023/04/15 06:52:19;;;;;;;11.67;10.43;;;9.50;1.00;;;;;;5048588;28;20282;-68
2023/04/15 06:54:46;;;;;;;12.30;11.00;;;9.50;1.00;;;;;;5054392;28;20196;-68
2023/04/15 06:57:12;;;;;;;12.70;10.50;;;9.70;1.00;;;;;;5014282;28;20195;-68
2023/04/15 06:59:40;;;;;;;10.60;9.50;;;9.90;1.00;;;;;;5031524;28;20233;-69
2023/04/15 07:02:11;;;;;;;11.30;9.80;;;10.00;1.00;;;;;;5016725;28;20212;-68
2023/04/15 07:04:38;;;;;;;11.50;10.30;;;10.20;1.00;;;;;;5051022;28;20279;-68
2023/04/15 07:07:07;;;;;;;14.60;10.07;;;10.30;1.00;;;;;;5049388;28;20257;-68
2023/04/15 07:09:34;;;;;;;16.47;11.63;;;10.30;1.00;;;;;;5030493;28;20829;-68
2023/04/15 07:12:01;;;;;;;11.63;10.43;;;10.30;1.00;;;;;;5048182;28;20223;-68
2023/04/15 07:14:28;;;;;;;11.33;10.00;;;10.50;1.00;;;;;;5031578;28;20680;-69
2023/04/15 07:16:55;;;;;;;14.00;10.30;;;10.90;1.00;;;;;;5031248;28;20206;-68
2023/04/15 07:19:22;;;;;;;12.23;10.10;;;11.50;1.00;;;;;;5026846;28;20282;-69
2023/04/15 07:21:49;;;;;;;11.47;10.27;;;12.40;1.00;;;;;;5041282;28;20196;-69
2023/04/15 07:24:17;;;;;;;12.17;10.33;;;13.30;1.00;;;;;;5026668;28;20195;-70
2023/04/15 07:26:45;;;;;;;11.07;9.87;;;13.90;1.00;;;;;;5050377;28;20630;-69
2023/04/15 07:29:12;;;;;;;12.43;9.77;;;14.60;1.00;;;;;;5047478;28;20187;-68
2023/04/15 07:31:41;;;;;;;11.27;9.93;;;15.40;1.00;;;;;;5030694;28;20292;-69
2023/04/15 07:34:07;;;;;;;14.43;10.38;;;15.90;1.00;;;;;;5031284;28;20218;-68
2023/04/15 07:36:35;;;;;;;11.48;10.15;;;16.80;1.00;;;;;;5014289;28;20238;-70
2023/04/15 07:39:03;;;;;;;14.20;11.10;;;17.60;1.00;;;;;;5049405;28;20611;-67
2023/04/15 07:41:30;;;;;;;11.25;10.05;;;17.80;1.00;;;;;;5041820;28;20195;-67
2023/04/15 07:43:57;;;;;;;12.02;9.43;;;17.40;1.00;;;;;;5038863;28;20283;-69
2023/04/15 07:46:26;;;;;;;11.73;10.30;;;16.20;1.00;;;;;;5045599;28;20295;-70
2023/04/15 07:48:53;;;;;;;11.45;10.32;;;17.00;1.00;;;;;;5038263;28;20231;-67
2023/04/15 07:51:20;;;;;;;10.60;9.50;;;15.40;1.00;;;;;;5025095;28;20282;-67
2023/04/15 07:53:49;;;;;;;13.23;10.77;;;15.40;1.00;;;;;;5022616;28;20707;-69
2023/04/15 07:56:16;;;;;;;12.80;10.93;;;14.90;1.00;;;;;;5041646;28;20281;-69
2023/04/15 07:58:43;;;;;;;12.05;10.05;;;14.40;1.00;;;;;;5016661;28;20195;-68
2023/04/15 08:01:10;;;;;;;15.30;11.47;;;14.00;1.00;;;;;;5038002;28;20192;-67
2023/04/15 08:03:38;;;;;;;12.57;10.83;;;13.60;1.00;;;;;;5025967;28;20682;-69
2023/04/15 08:06:05;;;;;;;11.87;10.67;;;13.90;1.00;;;;;;5043190;28;20282;-69
2023/04/15 08:08:32;;;;;;;10.45;9.35;;;14.40;1.00;;;;;;5049398;28;20953;-70
2023/04/15 08:10:59;;;;;;;11.10;9.60;;;15.60;1.00;;;;;;5026905;28;20637;-69
2023/04/15 08:13:26;;;;;;;10.70;8.95;;;15.00;1.00;;;;;;5025462;28;20203;-69
2023/04/15 08:16:19;;;;;;;11.93;9.83;;;13.40;1.00;;;;;;5026585;28;20242;-66
2023/04/15 08:18:47;;;;;;;14.87;10.60;;;11.90;1.00;;;;;;5026514;28;20686;-68
2023/04/15 08:21:15;;;;;;;11.67;9.40;;;11.90;1.00;;;;;;5047990;28;20280;-67
2023/04/15 08:23:43;;;;;;;12.77;9.67;;;12.30;1.00;;;;;;5043905;28;20195;-67
2023/04/15 08:26:11;;;;;;;11.43;9.67;;;12.40;1.00;;;;;;5017431;28;20249;-68
2023/04/15 08:28:39;;;;;;;11.33;10.23;;;12.70;1.00;;;;;;5017806;28;20226;-67
2023/04/15 08:31:07;;;;;;;13.43;10.70;;;13.40;1.00;;;;;;5047021;28;21015;-69
2023/04/15 08:33:34;;;;;;;11.93;10.73;;;13.40;1.00;;;;;;5048565;28;20198;-68
2023/04/15 08:36:02;;;;;;;14.13;11.60;;;12.80;1.00;;;;;;5046906;28;20632;-68
2023/04/15 08:38:29;;;;;;;12.83;11.53;;;12.70;1.00;;;;;;5028167;28;20214;-68
2023/04/15 08:40:59;;;;;;;13.03;11.20;;;13.00;1.00;;;;;;5049603;28;20192;-68
2023/04/15 08:43:34;;;;;;;13.10;11.80;;;13.00;1.00;;;;;;5012423;28;20686;-68
2023/04/15 08:46:03;;;;;;;15.33;12.30;;;12.40;1.00;;;;;;5046216;28;20237;-68
2023/04/15 08:48:33;;;;;;;13.13;11.80;;;12.30;1.00;;;;;;5045125;28;20261;-68
2023/04/15 08:51:01;;;;;;;12.57;11.27;;;12.10;1.00;;;;;;5018877;28;20200;-67
2023/04/15 08:53:29;;;;;;;13.20;11.70;;;11.70;1.00;;;;;;5030155;28;20619;-67
2023/04/15 08:55:58;;;;;;;13.00;11.43;;;11.50;1.00;;;;;;5039364;28;20212;-67
2023/04/15 08:58:26;;;;;;;12.60;10.67;;;11.80;1.00;;;;;;5028607;28;20226;-66
2023/04/15 09:00:53;;;;;;;12.40;11.03;;;12.00;1.00;;;;;;5047950;28;20192;-66
2023/04/15 09:03:22;;;;;;;13.57;10.57;;;11.60;1.00;;;;;;5007950;28;20231;-66
2023/04/15 09:05:50;;;;;;;12.23;10.93;;;11.80;1.00;;;;;;5045396;28;20203;-66
2023/04/15 09:08:19;;;;;;;12.37;10.57;;;11.80;1.00;;;;;;5052165;28;20211;-67
2023/04/15 09:10:46;;;;;;;12.27;10.97;;;11.50;1.00;;;;;;5026507;28;20235;-67
2023/04/15 09:13:13;;;;;;;11.40;10.20;;;11.20;1.00;;;;;;5021187;28;20255;-67
2023/04/15 09:15:40;;;;;;;13.00;11.00;;;11.50;1.00;;;;;;5029908;28;20223;-67
2023/04/15 09:18:10;;;;;;;12.60;11.10;;;11.30;1.00;;;;;;5029372;28;20204;-68
2023/04/15 09:20:41;;;;;;;12.03;10.83;;;11.20;1.00;;;;;;5040280;28;20250;-65
2023/04/15 09:23:16;;;;;;;11.57;10.20;;;11.30;1.00;;;;;;5051697;28;20195;-65
2023/04/15 09:25:45;;;;;;;12.23;10.93;;;11.30;1.00;;;;;;5024480;28;20234;-66
2023/04/15 09:28:12;;;;;;;10.40;8.93;;;11.30;1.00;;;;;;5029065;28;20914;-67
2023/04/15 09:30:45;;;;;;;8.67;7.70;;;11.50;1.00;;;;;;5050438;28;20205;-67
2023/04/15 09:33:14;;;;;;;11.27;8.57;;;11.50;1.00;;;;;;5025267;28;20621;-67
2023/04/15 09:35:41;;;;;;;10.07;8.13;;;11.30;1.00;;;;;;5040821;28;20213;-67
2023/04/15 09:38:09;;;;;;;10.33;9.17;;;11.30;1.00;;;;;;5030477;28;20196;-68
2023/04/15 09:40:40;;;;;;;10.13;8.80;;;11.00;1.00;;;;;;5040158;28;20200;-66
2023/04/15 09:43:11;;;;;;;10.37;8.43;;;11.10;1.00;;;;;;5026822;28;20192;-67
2023/04/15 09:45:50;;;;;;;11.13;8.63;;;11.20;1.00;;;;;;5006194;28;20310;-68
2023/04/15 09:48:24;;;;;;;9.53;8.47;;;11.00;1.00;;;;;;5025164;28;20196;-70
2023/04/15 09:50:52;;;;;;;11.53;9.40;;;11.10;1.00;;;;;;5049208;28;20203;-68
2023/04/15 09:53:21;;;;;;;11.57;9.90;;;11.00;1.00;;;;;;5054230;28;20212;-68
2023/04/15 09:55:53;;;;;;;12.37;9.37;;;11.00;1.00;;;;;;5007466;28;20235;-68
2023/04/15 09:58:25;;;;;;;9.87;8.77;;;11.00;1.00;;;;;;5046684;28;20191;-68
2023/04/15 10:00:55;;;;;;;11.83;9.90;;;11.30;1.00;;;;;;5018144;28;21228;-68
2023/04/15 10:03:30;;;;;;;13.03;9.80;;;11.20;1.00;;;;;;5049002;28;20255;-68
2023/04/15 10:05:59;;;;;;;12.33;10.23;;;11.30;1.00;;;;;;5010814;28;20195;-69
2023/04/15 10:08:30;;;;;;;12.17;9.83;;;11.30;1.00;;;;;;5041968;28;20223;-69
2023/04/15 10:10:57;;;;;;;11.13;9.43;;;11.40;1.00;;;;;;5039585;28;20218;-68
2023/04/15 10:13:27;;;;;;;11.53;9.30;;;11.20;1.00;;;;;;5007958;28;20200;-70
2023/04/15 10:16:13;;;;;;;11.67;9.77;;;11.30;1.00;;;;;;5039165;28;20624;-68
2023/04/15 10:18:46;;;;;;;11.70;8.43;;;11.30;1.00;;;;;;5045021;28;20705;-68
2023/04/15 10:21:17;;;;;;;11.50;9.73;;;11.20;1.00;;;;;;5029486;28;20230;-68
2023/04/15 10:23:47;;;;;;;11.13;9.07;;;10.90;1.00;;;;;;5049331;28;20223;-68
2023/04/15 10:26:16;;;;;;;12.10;10.23;;;11.20;1.00;;;;;;5041771;28;20279;-68
2023/04/15 10:28:44;;;;;;;12.07;9.70;;;11.20;1.00;;;;;;5010015;28;20204;-68
2023/04/15 10:31:15;;;;;;;12.60;10.53;;;11.40;1.00;;;;;;5029252;28;20192;-68
2023/04/15 10:33:43;;;;;;;12.30;10.40;;;11.40;1.00;;;;;;5049798;28;20199;-69
2023/04/15 10:36:11;;;;;;;14.00;10.60;;;11.40;1.00;;;;;;5026218;28;20215;-69
2023/04/15 10:38:44;;;;;;;12.97;9.50;;;11.40;1.00;;;;;;5051345;28;20274;-68
2023/04/15 10:41:18;;;;;;;10.43;9.33;;;11.40;1.00;;;;;;5041122;28;20323;-69
2023/04/15 10:43:51;;;;;;;11.77;9.00;;;11.30;1.00;;;;;;5017099;28;20230;-69
2023/04/15 10:46:36;;;;;;;13.20;9.17;;;11.10;1.00;;;;;;5020475;28;20621;-69
2023/04/15 10:49:12;;;;;;;11.33;8.90;;;11.20;1.00;;;;;;5050826;28;20195;-69
2023/04/15 10:51:43;;;;;;;9.53;8.27;;;11.20;1.00;;;;;;5033349;28;20206;-69
2023/04/15 10:54:31;;;;;;;9.93;7.93;;;11.20;1.00;;;;;;5032673;28;20758;-69
2023/04/15 10:57:01;;;;;;;8.70;7.40;;;11.20;1.00;;;;;;5050624;28;20187;-69
2023/04/15 10:59:58;;;;;;;8.33;7.30;;;11.10;1.00;;;;;;5041099;28;20194;-69
2023/04/15 11:02:56;;;;;;;10.53;8.33;;;11.10;1.00;;;;;;5039335;28;20227;-68
2023/04/15 11:05:50;;;;;;;9.50;8.33;;;10.90;1.00;;;;;;5024436;28;20239;-69
2023/04/15 11:08:18;;;;;;;9.90;8.73;;;10.90;1.00;;;;;;5047911;28;20196;-69
2023/04/15 11:10:45;;;;;;;10.47;9.27;;;10.90;1.00;;;;;;5042439;28;20704;-69
2023/04/15 11:13:20;;;;;;;9.53;8.27;;;10.80;1.00;;;;;;5047931;28;20190;-69
2023/04/15 11:15:48;;;;;;;12.00;9.70;;;10.80;1.00;;;;;;5046481;28;20203;-68
2023/04/15 11:18:16;;;;;;;15.70;13.50;;;10.80;1.00;;;;;;5047559;28;20195;-69
2023/04/15 11:20:47;;;;;;;15.00;13.47;;;10.80;1.00;;;;;;5043682;28;20191;-69
2023/04/15 11:23:16;;;;;;;10.63;9.53;;;10.90;1.00;;;;;;5031678;28;20187;-68
2023/04/15 11:25:44;;;;;;;11.70;10.50;;;10.80;1.00;;;;;;5018359;28;20287;-68
2023/04/15 11:28:12;;;;;;;11.70;10.50;;;10.80;1.00;;;;;;5014264;28;20196;-69
2023/04/15 11:30:39;;;;;;;12.43;8.77;;;10.90;1.00;;;;;;5034376;28;20203;-69
2023/04/15 11:33:08;;;;;;;11.93;10.00;;;10.90;1.00;;;;;;5018049;28;20199;-69
2023/04/15 11:35:35;;;;;;;11.27;9.50;;;11.00;1.00;;;;;;5025972;28;20284;-70
2023/04/15 11:38:04;;;;;;;10.13;9.03;;;10.90;1.00;;;;;;5005272;28;20213;-69
2023/04/15 11:40:34;;;;;;;9.53;8.43;;;11.00;1.00;;;;;;5027194;28;20184;-69
2023/04/15 11:43:12;;;;;;;9.30;8.00;;;10.90;1.00;;;;;;5019260;28;20199;-68
2023/04/15 11:46:00;;;;;;;9.30;8.40;;;10.90;1.00;;;;;;5046674;28;20685;-68
2023/04/15 11:48:32;;;;;;;9.67;8.63;;;10.80;1.00;;;;;;5033599;28;20442;-69
2023/04/15 11:51:01;;;;;;;9.07;7.83;;;10.90;1.00;;;;;;5010630;28;20207;-68
2023/04/15 11:53:39;;;;;;;11.27;9.53;;;10.80;1.00;;;;;;5033276;28;20235;-68
2023/04/15 11:56:09;;;;;;;10.93;9.70;;;10.80;1.00;;;;;;5041238;28;20305;-68
2023/04/15 11:58:37;;;;;;;9.13;8.23;;;10.80;1.00;;;;;;5028879;28;20202;-68
2023/04/15 12:01:05;;;;;;;10.43;7.87;;;10.80;1.00;;;;;;5041046;28;20184;-68
2023/04/15 12:03:35;;;;;;;8.93;7.70;;;10.80;1.00;;;;;;5040318;28;20223;-68
2023/04/15 12:06:22;;;;;;;9.47;8.20;;;10.80;1.00;;;;;;5046285;28;20196;-69
2023/04/15 12:08:55;;;;;;;8.60;7.70;;;10.80;1.00;;;;;;5025183;28;20223;-69
2023/04/15 12:11:33;;;;;;;10.20;8.27;;;10.80;1.00;;;;;;5008987;28;21137;-68
2023/04/15 12:14:14;;;;;;;9.20;7.80;;;10.80;1.00;;;;;;5027115;28;20701;-68
2023/04/15 12:16:48;;;;;;;8.87;7.97;;;10.80;1.00;;;;;;5022007;28;20835;-68
2023/04/15 12:19:23;;;;;;;9.87;8.23;;;10.80;1.00;;;;;;5046164;28;20193;-68
2023/04/15 12:21:51;;;;;;;7.73;6.87;;;10.90;1.00;;;;;;5043809;28;20561;-68
2023/04/15 12:24:23;;;;;;;9.83;7.53;;;10.90;1.00;;;;;;5042681;28;20195;-68
2023/04/15 12:26:52;;;;;;;8.90;6.77;;;10.80;1.00;;;;;;5044723;28;20616;-68
2023/04/15 12:29:24;;;;;;;7.23;5.90;;;10.80;1.00;;;;;;5044600;28;20210;-69
2023/04/15 12:31:56;;;;;;;7.93;5.60;;;10.80;1.00;;;;;;5044494;28;20198;-68
2023/04/15 12:34:35;;;;;;;9.00;6.70;;;10.90;1.00;;;;;;5021929;28;20258;-67
2023/04/15 12:37:05;;;;;;;17.97;11.67;;;10.80;1.00;;;;;;5041700;28;20746;-68
2023/04/15 12:39:35;;;;;;;22.17;15.30;;;10.90;1.00;;;;;;5044940;28;20197;-68
2023/04/15 12:42:04;;;;;;;9.00;7.47;;;11.00;1.00;;;;;;5043380;28;20183;-68
2023/04/15 12:44:32;;;;;;;7.57;6.27;;;11.00;1.00;;;;;;5025219;28;20194;-68
2023/04/15 12:47:00;;;;;;;6.00;5.00;;;11.00;1.00;;;;;;5044861;28;20223;-68
2023/04/15 12:49:27;;;;;;;7.87;5.43;;;11.10;1.00;;;;;;5044643;28;20207;-67
2023/04/15 12:52:01;;;;;;;6.23;5.63;;;11.20;1.00;;;;;;5025891;28;20187;-68
2023/04/15 12:54:30;;;;;;;7.57;6.20;;;11.20;1.00;;;;;;5027049;28;20249;-68
2023/04/15 12:56:58;;;;;;;6.17;5.57;;;11.40;1.00;;;;;;5023759;28;20343;-67